sensor_id;sensor_type;location;lat;lon;timestamp;P1;durP1;ratioP1;P2;durP2;ratioP2
4106;SDS011;21906;50.812;7.132;2023-02-15T00:00:16;36.73;;;19.33;;
4106;SDS011;21906;50.812;7.132;2023-02-15T00:02:42;35.20;;;18.30;;
4106;SDS011;21906;50.812;7.132;2023-02-15T00:05:08;35.60;;;17.87;;
4106;SDS011;21906;50.812;7.132;2023-02-15T00:07:34;31.30;;;17.13;;
4106;SDS011;21906;50.812;7.132;2023-02-15T00:10:00;33.73;;;18.63;;
4106;SDS011;21906;50.812;7.132;2023-02-15T00:12:25;35.03;;;17.23;;
4106;SDS011;21906;50.812;7.132;2023-02-15T00:14:51;34.37;;;18.00;;
4106;SDS011;21906;50.812;7.132;2023-02-15T00:17:16;31.53;;;17.73;;
4106;SDS011;21906;50.812;7.132;2023-02-15T00:19:42;32.70;;;17.83;;
4106;SDS011;21906;50.812;7.132;2023-02-15T00:22:08;33.77;;;17.70;;
4106;SDS011;21906;50.812;7.132;2023-02-15T00:24:34;37.60;;;18.50;;
4106;SDS011;21906;50.812;7.132;2023-02-15T00:26:59;32.17;;;17.10;;
4106;SDS011;21906;50.812;7.132;2023-02-15T00:29:25;35.10;;;18.47;;
4106;SDS011;21906;50.812;7.132;2023-02-15T00:31:51;32.73;;;17.50;;
4106;SDS011;21906;50.812;7.132;2023-02-15T00:36:49;34.00;;;18.77;;
4106;SDS011;21906;50.812;7.132;2023-02-15T00:39:15;33.13;;;17.33;;
4106;SDS011;21906;50.812;7.132;2023-02-15T00:41:42;32.37;;;17.50;;
4106;SDS011;21906;50.812;7.132;2023-02-15T00:44:08;35.60;;;18.47;;
4106;SDS011;21906;50.812;7.132;2023-02-15T00:46:34;31.60;;;17.23;;
4106;SDS011;21906;50.812;7.132;2023-02-15T00:49:00;32.30;;;17.17;;
4106;SDS011;21906;50.812;7.132;2023-02-15T00:51:26;32.20;;;17.40;;
4106;SDS011;21906;50.812;7.132;2023-02-15T00:53:53;38.33;;;17.83;;
4106;SDS011;21906;50.812;7.132;2023-02-15T00:56:18;36.63;;;18.47;;
4106;SDS011;21906;50.812;7.132;2023-02-15T00:58:45;31.57;;;16.17;;
4106;SDS011;21906;50.812;7.132;2023-02-15T01:01:13;34.73;;;17.97;;
4106;SDS011;21906;50.812;7.132;2023-02-15T01:03:40;36.37;;;17.73;;
4106;SDS011;21906;50.812;7.132;2023-02-15T01:06:07;32.67;;;17.40;;
4106;SDS011;21906;50.812;7.132;2023-02-15T01:08:33;31.67;;;16.53;;
4106;SDS011;21906;50.812;7.132;2023-02-15T01:11:06;32.80;;;16.60;;
4106;SDS011;21906;50.812;7.132;2023-02-15T01:13:34;33.03;;;16.47;;
4106;SDS011;21906;50.812;7.132;2023-02-15T01:16:00;35.13;;;16.40;;
4106;SDS011;21906;50.812;7.132;2023-02-15T01:18:27;35.20;;;17.67;;
4106;SDS011;21906;50.812;7.132;2023-02-15T01:20:52;37.73;;;17.40;;
4106;SDS011;21906;50.812;7.132;2023-02-15T01:23:18;34.97;;;17.73;;
4106;SDS011;21906;50.812;7.132;2023-02-15T01:25:44;35.17;;;16.53;;
4106;SDS011;21906;50.812;7.132;2023-02-15T01:28:10;38.40;;;17.90;;
4106;SDS011;21906;50.812;7.132;2023-02-15T01:30:36;32.90;;;17.27;;
4106;SDS011;21906;50.812;7.132;2023-02-15T01:33:01;34.77;;;17.60;;
4106;SDS011;21906;50.812;7.132;2023-02-15T01:35:27;31.90;;;16.00;;
4106;SDS011;21906;50.812;7.132;2023-02-15T01:37:53;33.50;;;17.27;;
4106;SDS011;21906;50.812;7.132;2023-02-15T01:40:20;34.90;;;16.63;;
4106;SDS011;21906;50.812;7.132;2023-02-15T01:42:46;36.87;;;17.80;;
4106;SDS011;21906;50.812;7.132;2023-02-15T01:45:24;31.40;;;16.70;;
4106;SDS011;21906;50.812;7.132;2023-02-15T01:50:49;34.47;;;16.00;;
4106;SDS011;21906;50.812;7.132;2023-02-15T01:58:24;34.00;;;17.03;;
4106;SDS011;21906;50.812;7.132;2023-02-15T02:00:51;35.70;;;16.73;;
4106;SDS011;21906;50.812;7.132;2023-02-15T02:03:19;33.97;;;17.40;;
4106;SDS011;21906;50.812;7.132;2023-02-15T02:05:55;31.63;;;15.60;;
4106;SDS011;21906;50.812;7.132;2023-02-15T02:08:21;30.97;;;16.20;;
4106;SDS011;21906;50.812;7.132;2023-02-15T02:10:47;32.67;;;16.20;;
4106;SDS011;21906;50.812;7.132;2023-02-15T02:13:12;35.87;;;16.83;;
4106;SDS011;21906;50.812;7.132;2023-02-15T02:20:56;33.93;;;16.63;;
4106;SDS011;21906;50.812;7.132;2023-02-15T02:23:55;29.57;;;16.17;;
4106;SDS011;21906;50.812;7.132;2023-02-15T02:32:28;31.23;;;15.83;;
4106;SDS011;21906;50.812;7.132;2023-02-15T02:40:29;28.03;;;14.80;;
4106;SDS011;21906;50.812;7.132;2023-02-15T02:45:59;32.97;;;15.90;;
4106;SDS011;21906;50.812;7.132;2023-02-15T02:48:49;31.03;;;14.97;;
4106;SDS011;21906;50.812;7.132;2023-02-15T02:51:16;29.20;;;15.20;;
4106;SDS011;21906;50.812;7.132;2023-02-15T02:53:46;30.70;;;16.03;;
4106;SDS011;21906;50.812;7.132;2023-02-15T02:56:58;30.83;;;15.40;;
4106;SDS011;21906;50.812;7.132;2023-02-15T03:04:28;31.23;;;15.57;;
4106;SDS011;21906;50.812;7.132;2023-02-15T03:07:01;33.30;;;15.80;;
4106;SDS011;21906;50.812;7.132;2023-02-15T03:09:34;28.33;;;15.03;;
4106;SDS011;21906;50.812;7.132;2023-02-15T03:14:37;28.23;;;14.57;;
4106;SDS011;21906;50.812;7.132;2023-02-15T03:17:05;34.40;;;15.27;;
4106;SDS011;21906;50.812;7.132;2023-02-15T03:19:33;33.47;;;15.83;;
4106;SDS011;21906;50.812;7.132;2023-02-15T03:22:03;31.57;;;15.43;;
4106;SDS011;21906;50.812;7.132;2023-02-15T03:24:42;32.53;;;16.30;;
4106;SDS011;21906;50.812;7.132;2023-02-15T03:27:14;27.40;;;15.00;;
4106;SDS011;21906;50.812;7.132;2023-02-15T03:29:47;27.70;;;14.47;;
4106;SDS011;21906;50.812;7.132;2023-02-15T03:32:17;28.93;;;14.63;;
4106;SDS011;21906;50.812;7.132;2023-02-15T03:34:43;32.80;;;16.40;;
4106;SDS011;21906;50.812;7.132;2023-02-15T03:37:18;25.47;;;13.90;;
4106;SDS011;21906;50.812;7.132;2023-02-15T03:43:00;29.80;;;14.83;;
4106;SDS011;21906;50.812;7.132;2023-02-15T03:45:33;33.30;;;16.33;;
4106;SDS011;21906;50.812;7.132;2023-02-15T03:48:03;29.07;;;14.33;;
4106;SDS011;21906;50.812;7.132;2023-02-15T03:50:31;25.77;;;13.43;;
4106;SDS011;21906;50.812;7.132;2023-02-15T03:53:19;27.00;;;14.00;;
4106;SDS011;21906;50.812;7.132;2023-02-15T03:55:47;30.30;;;15.20;;
4106;SDS011;21906;50.812;7.132;2023-02-15T03:58:13;29.23;;;14.77;;
4106;SDS011;21906;50.812;7.132;2023-02-15T04:00:58;30.87;;;15.37;;
4106;SDS011;21906;50.812;7.132;2023-02-15T04:03:52;27.77;;;14.43;;
4106;SDS011;21906;50.812;7.132;2023-02-15T04:06:24;29.67;;;15.23;;
4106;SDS011;21906;50.812;7.132;2023-02-15T04:08:49;26.23;;;14.20;;
4106;SDS011;21906;50.812;7.132;2023-02-15T04:11:34;28.57;;;14.73;;
4106;SDS011;21906;50.812;7.132;2023-02-15T04:13:59;28.53;;;14.93;;
4106;SDS011;21906;50.812;7.132;2023-02-15T04:16:45;26.97;;;14.00;;
4106;SDS011;21906;50.812;7.132;2023-02-15T04:19:11;29.80;;;15.10;;
4106;SDS011;21906;50.812;7.132;2023-02-15T04:21:55;26.70;;;14.60;;
4106;SDS011;21906;50.812;7.132;2023-02-15T04:24:39;29.77;;;15.10;;
4106;SDS011;21906;50.812;7.132;2023-02-15T04:27:23;30.43;;;15.27;;
4106;SDS011;21906;50.812;7.132;2023-02-15T04:29:49;28.73;;;14.20;;
4106;SDS011;21906;50.812;7.132;2023-02-15T04:32:15;26.40;;;13.67;;
4106;SDS011;21906;50.812;7.132;2023-02-15T04:34:40;29.80;;;14.83;;
4106;SDS011;21906;50.812;7.132;2023-02-15T04:37:06;30.07;;;14.80;;
4106;SDS011;21906;50.812;7.132;2023-02-15T04:39:32;29.50;;;14.90;;
4106;SDS011;21906;50.812;7.132;2023-02-15T04:41:57;27.90;;;14.40;;
4106;SDS011;21906;50.812;7.132;2023-02-15T04:44:23;26.57;;;14.17;;
4106;SDS011;21906;50.812;7.132;2023-02-15T04:46:49;25.37;;;13.67;;
4106;SDS011;21906;50.812;7.132;2023-02-15T04:49:14;24.57;;;13.53;;
4106;SDS011;21906;50.812;7.132;2023-02-15T04:51:40;26.67;;;14.67;;
4106;SDS011;21906;50.812;7.132;2023-02-15T04:54:06;24.93;;;13.53;;
4106;SDS011;21906;50.812;7.132;2023-02-15T04:56:31;33.53;;;14.27;;
4106;SDS011;21906;50.812;7.132;2023-02-15T04:58:59;26.83;;;13.30;;
4106;SDS011;21906;50.812;7.132;2023-02-15T05:01:26;28.60;;;14.43;;
4106;SDS011;21906;50.812;7.132;2023-02-15T05:03:52;28.80;;;13.77;;
4106;SDS011;21906;50.812;7.132;2023-02-15T05:06:17;27.30;;;14.00;;
4106;SDS011;21906;50.812;7.132;2023-02-15T05:08:43;24.43;;;13.67;;
4106;SDS011;21906;50.812;7.132;2023-02-15T05:11:09;23.97;;;14.07;;
4106;SDS011;21906;50.812;7.132;2023-02-15T05:13:34;22.90;;;12.70;;
4106;SDS011;21906;50.812;7.132;2023-02-15T05:16:00;26.77;;;13.43;;
4106;SDS011;21906;50.812;7.132;2023-02-15T05:18:26;21.30;;;12.50;;
4106;SDS011;21906;50.812;7.132;2023-02-15T05:20:52;28.30;;;14.33;;
4106;SDS011;21906;50.812;7.132;2023-02-15T05:23:17;24.87;;;13.37;;
4106;SDS011;21906;50.812;7.132;2023-02-15T05:25:49;25.17;;;13.50;;
4106;SDS011;21906;50.812;7.132;2023-02-15T05:28:35;22.17;;;12.77;;
4106;SDS011;21906;50.812;7.132;2023-02-15T05:33:33;27.90;;;14.43;;
4106;SDS011;21906;50.812;7.132;2023-02-15T05:35:59;22.87;;;12.17;;
4106;SDS011;21906;50.812;7.132;2023-02-15T05:38:25;26.80;;;13.93;;
4106;SDS011;21906;50.812;7.132;2023-02-15T05:40:51;21.80;;;12.83;;
4106;SDS011;21906;50.812;7.132;2023-02-15T05:43:17;28.13;;;13.13;;
4106;SDS011;21906;50.812;7.132;2023-02-15T05:45:46;22.97;;;13.37;;
4106;SDS011;21906;50.812;7.132;2023-02-15T05:48:16;24.90;;;12.80;;
4106;SDS011;21906;50.812;7.132;2023-02-15T05:50:43;25.10;;;13.43;;
4106;SDS011;21906;50.812;7.132;2023-02-15T05:53:08;24.20;;;12.53;;
4106;SDS011;21906;50.812;7.132;2023-02-15T05:55:36;22.53;;;13.20;;
4106;SDS011;21906;50.812;7.132;2023-02-15T05:58:03;25.30;;;13.30;;
4106;SDS011;21906;50.812;7.132;2023-02-15T06:00:29;25.20;;;13.00;;
4106;SDS011;21906;50.812;7.132;2023-02-15T06:02:55;26.80;;;13.83;;
4106;SDS011;21906;50.812;7.132;2023-02-15T06:05:21;24.70;;;13.40;;
4106;SDS011;21906;50.812;7.132;2023-02-15T06:07:47;25.73;;;13.67;;
4106;SDS011;21906;50.812;7.132;2023-02-15T06:10:12;26.20;;;14.03;;
4106;SDS011;21906;50.812;7.132;2023-02-15T06:12:38;20.50;;;11.90;;
4106;SDS011;21906;50.812;7.132;2023-02-15T06:15:04;27.50;;;13.57;;
4106;SDS011;21906;50.812;7.132;2023-02-15T06:17:30;24.37;;;12.90;;
4106;SDS011;21906;50.812;7.132;2023-02-15T06:19:56;21.70;;;11.60;;
4106;SDS011;21906;50.812;7.132;2023-02-15T06:22:22;22.90;;;12.17;;
4106;SDS011;21906;50.812;7.132;2023-02-15T06:24:48;24.83;;;12.40;;
4106;SDS011;21906;50.812;7.132;2023-02-15T06:27:13;24.07;;;13.20;;
4106;SDS011;21906;50.812;7.132;2023-02-15T06:29:39;25.33;;;12.40;;
4106;SDS011;21906;50.812;7.132;2023-02-15T06:32:05;21.63;;;12.37;;
4106;SDS011;21906;50.812;7.132;2023-02-15T06:34:31;24.20;;;12.53;;
4106;SDS011;21906;50.812;7.132;2023-02-15T06:36:57;23.73;;;12.43;;
4106;SDS011;21906;50.812;7.132;2023-02-15T06:39:23;20.50;;;11.47;;
4106;SDS011;21906;50.812;7.132;2023-02-15T06:41:48;23.00;;;13.03;;
4106;SDS011;21906;50.812;7.132;2023-02-15T06:44:14;25.20;;;12.27;;
4106;SDS011;21906;50.812;7.132;2023-02-15T06:46:40;21.13;;;12.30;;
4106;SDS011;21906;50.812;7.132;2023-02-15T06:49:05;22.27;;;12.40;;
4106;SDS011;21906;50.812;7.132;2023-02-15T06:51:31;24.57;;;12.40;;
4106;SDS011;21906;50.812;7.132;2023-02-15T06:53:58;22.80;;;12.10;;
4106;SDS011;21906;50.812;7.132;2023-02-15T06:56:24;21.33;;;11.63;;
4106;SDS011;21906;50.812;7.132;2023-02-15T06:58:50;19.50;;;11.40;;
4106;SDS011;21906;50.812;7.132;2023-02-15T07:01:17;21.80;;;11.77;;
4106;SDS011;21906;50.812;7.132;2023-02-15T07:03:43;22.20;;;12.50;;
4106;SDS011;21906;50.812;7.132;2023-02-15T07:06:10;22.10;;;12.23;;
4106;SDS011;21906;50.812;7.132;2023-02-15T07:08:36;20.27;;;11.83;;
4106;SDS011;21906;50.812;7.132;2023-02-15T07:11:03;23.27;;;12.23;;
4106;SDS011;21906;50.812;7.132;2023-02-15T07:13:48;23.73;;;12.73;;
4106;SDS011;21906;50.812;7.132;2023-02-15T07:16:14;24.10;;;12.90;;
4106;SDS011;21906;50.812;7.132;2023-02-15T07:18:40;19.40;;;11.43;;
4106;SDS011;21906;50.812;7.132;2023-02-15T07:21:06;23.40;;;13.03;;
4106;SDS011;21906;50.812;7.132;2023-02-15T07:23:35;26.33;;;12.70;;
4106;SDS011;21906;50.812;7.132;2023-02-15T07:26:02;23.77;;;13.03;;
4106;SDS011;21906;50.812;7.132;2023-02-15T07:28:29;20.60;;;12.07;;
4106;SDS011;21906;50.812;7.132;2023-02-15T07:30:55;19.23;;;11.33;;
4106;SDS011;21906;50.812;7.132;2023-02-15T07:33:22;21.37;;;12.53;;
4106;SDS011;21906;50.812;7.132;2023-02-15T07:35:52;23.40;;;13.00;;
4106;SDS011;21906;50.812;7.132;2023-02-15T07:38:19;22.27;;;12.53;;
4106;SDS011;21906;50.812;7.132;2023-02-15T07:40:45;24.03;;;12.03;;
4106;SDS011;21906;50.812;7.132;2023-02-15T07:43:11;23.03;;;12.43;;
4106;SDS011;21906;50.812;7.132;2023-02-15T07:45:37;21.63;;;11.63;;
4106;SDS011;21906;50.812;7.132;2023-02-15T07:48:04;21.40;;;11.43;;
4106;SDS011;21906;50.812;7.132;2023-02-15T07:50:30;21.80;;;12.13;;
4106;SDS011;21906;50.812;7.132;2023-02-15T07:52:56;18.30;;;11.40;;
4106;SDS011;21906;50.812;7.132;2023-02-15T07:55:23;22.83;;;11.67;;
4106;SDS011;21906;50.812;7.132;2023-02-15T07:57:50;20.80;;;11.97;;
4106;SDS011;21906;50.812;7.132;2023-02-15T08:00:17;20.87;;;12.20;;
4106;SDS011;21906;50.812;7.132;2023-02-15T08:02:48;20.63;;;12.20;;
4106;SDS011;21906;50.812;7.132;2023-02-15T08:05:34;21.33;;;11.50;;
4106;SDS011;21906;50.812;7.132;2023-02-15T08:08:00;20.90;;;11.00;;
4106;SDS011;21906;50.812;7.132;2023-02-15T08:10:25;19.30;;;11.60;;
4106;SDS011;21906;50.812;7.132;2023-02-15T08:13:11;22.43;;;12.10;;
4106;SDS011;21906;50.812;7.132;2023-02-15T08:15:36;24.63;;;12.30;;
4106;SDS011;21906;50.812;7.132;2023-02-15T08:18:02;19.07;;;10.97;;
4106;SDS011;21906;50.812;7.132;2023-02-15T08:20:28;19.40;;;10.97;;
4106;SDS011;21906;50.812;7.132;2023-02-15T08:22:54;21.10;;;11.97;;
4106;SDS011;21906;50.812;7.132;2023-02-15T08:25:19;19.77;;;11.87;;
4106;SDS011;21906;50.812;7.132;2023-02-15T08:27:45;21.10;;;12.07;;
4106;SDS011;21906;50.812;7.132;2023-02-15T08:30:11;18.70;;;11.20;;
4106;SDS011;21906;50.812;7.132;2023-02-15T08:32:39;20.87;;;11.40;;
4106;SDS011;21906;50.812;7.132;2023-02-15T08:35:04;20.57;;;11.47;;
4106;SDS011;21906;50.812;7.132;2023-02-15T08:37:31;18.93;;;10.90;;
4106;SDS011;21906;50.812;7.132;2023-02-15T08:39:57;17.90;;;11.00;;
4106;SDS011;21906;50.812;7.132;2023-02-15T08:42:22;18.80;;;10.97;;
4106;SDS011;21906;50.812;7.132;2023-02-15T08:44:48;18.70;;;11.30;;
4106;SDS011;21906;50.812;7.132;2023-02-15T08:47:15;22.10;;;12.33;;
4106;SDS011;21906;50.812;7.132;2023-02-15T08:49:41;16.87;;;10.43;;
4106;SDS011;21906;50.812;7.132;2023-02-15T08:52:07;17.23;;;10.70;;
4106;SDS011;21906;50.812;7.132;2023-02-15T08:54:32;16.20;;;10.30;;
4106;SDS011;21906;50.812;7.132;2023-02-15T08:56:58;15.60;;;9.60;;
4106;SDS011;21906;50.812;7.132;2023-02-15T08:59:24;16.97;;;11.00;;
4106;SDS011;21906;50.812;7.132;2023-02-15T09:01:52;21.90;;;11.60;;
4106;SDS011;21906;50.812;7.132;2023-02-15T09:04:18;16.00;;;9.73;;
4106;SDS011;21906;50.812;7.132;2023-02-15T09:06:46;15.47;;;9.80;;
4106;SDS011;21906;50.812;7.132;2023-02-15T09:09:13;18.07;;;11.27;;
4106;SDS011;21906;50.812;7.132;2023-02-15T09:11:41;19.07;;;11.20;;
4106;SDS011;21906;50.812;7.132;2023-02-15T09:14:12;15.87;;;10.20;;
4106;SDS011;21906;50.812;7.132;2023-02-15T09:16:43;21.77;;;11.73;;
4106;SDS011;21906;50.812;7.132;2023-02-15T09:19:15;17.90;;;11.40;;
4106;SDS011;21906;50.812;7.132;2023-02-15T09:21:49;18.67;;;10.40;;
4106;SDS011;21906;50.812;7.132;2023-02-15T09:24:19;18.23;;;11.10;;
4106;SDS011;21906;50.812;7.132;2023-02-15T09:26:47;18.10;;;11.13;;
4106;SDS011;21906;50.812;7.132;2023-02-15T09:29:14;20.33;;;11.00;;
4106;SDS011;21906;50.812;7.132;2023-02-15T09:31:46;16.67;;;11.50;;
4106;SDS011;21906;50.812;7.132;2023-02-15T09:34:17;17.70;;;11.40;;
4106;SDS011;21906;50.812;7.132;2023-02-15T09:37:13;18.57;;;10.70;;
4106;SDS011;21906;50.812;7.132;2023-02-15T09:39:41;17.93;;;11.40;;
4106;SDS011;21906;50.812;7.132;2023-02-15T09:45:04;17.77;;;11.07;;
4106;SDS011;21906;50.812;7.132;2023-02-15T09:53:29;18.53;;;11.73;;
4106;SDS011;21906;50.812;7.132;2023-02-15T09:56:12;17.87;;;11.93;;
4106;SDS011;21906;50.812;7.132;2023-02-15T10:16:18;20.43;;;11.90;;
4106;SDS011;21906;50.812;7.132;2023-02-15T10:19:11;16.20;;;11.03;;
4106;SDS011;21906;50.812;7.132;2023-02-15T10:27:13;17.33;;;11.73;;
4106;SDS011;21906;50.812;7.132;2023-02-15T10:30:08;21.30;;;11.80;;
4106;SDS011;21906;50.812;7.132;2023-02-15T10:44:12;15.20;;;11.57;;
4106;SDS011;21906;50.812;7.132;2023-02-15T10:52:32;16.73;;;11.80;;
4106;SDS011;21906;50.812;7.132;2023-02-15T11:00:44;17.40;;;12.33;;
4106;SDS011;21906;50.812;7.132;2023-02-15T11:06:30;19.17;;;12.93;;
4106;SDS011;21906;50.812;7.132;2023-02-15T11:09:03;16.93;;;11.77;;
4106;SDS011;21906;50.812;7.132;2023-02-15T11:11:44;18.70;;;12.10;;
4106;SDS011;21906;50.812;7.132;2023-02-15T11:17:17;20.50;;;12.20;;
4106;SDS011;21906;50.812;7.132;2023-02-15T11:20:23;19.20;;;12.37;;
4106;SDS011;21906;50.812;7.132;2023-02-15T11:22:55;19.87;;;12.50;;
4106;SDS011;21906;50.812;7.132;2023-02-15T11:25:31;18.20;;;11.90;;
4106;SDS011;21906;50.812;7.132;2023-02-15T11:28:03;18.23;;;11.83;;
4106;SDS011;21906;50.812;7.132;2023-02-15T11:30:44;16.50;;;12.30;;
4106;SDS011;21906;50.812;7.132;2023-02-15T11:33:39;16.37;;;11.57;;
4106;SDS011;21906;50.812;7.132;2023-02-15T11:36:14;17.70;;;11.53;;
4106;SDS011;21906;50.812;7.132;2023-02-15T11:38:45;18.37;;;12.20;;
4106;SDS011;21906;50.812;7.132;2023-02-15T11:41:18;17.43;;;12.10;;
4106;SDS011;21906;50.812;7.132;2023-02-15T11:43:54;15.97;;;11.70;;
4106;SDS011;21906;50.812;7.132;2023-02-15T11:46:27;16.87;;;11.33;;
4106;SDS011;21906;50.812;7.132;2023-02-15T11:48:53;17.03;;;12.30;;
4106;SDS011;21906;50.812;7.132;2023-02-15T11:51:20;15.33;;;11.93;;
4106;SDS011;21906;50.812;7.132;2023-02-15T11:53:47;16.70;;;12.20;;
4106;SDS011;21906;50.812;7.132;2023-02-15T11:56:18;15.37;;;12.00;;
4106;SDS011;21906;50.812;7.132;2023-02-15T12:04:04;17.33;;;12.43;;
4106;SDS011;21906;50.812;7.132;2023-02-15T12:06:37;14.93;;;11.70;;
4106;SDS011;21906;50.812;7.132;2023-02-15T12:11:50;17.50;;;12.50;;
4106;SDS011;21906;50.812;7.132;2023-02-15T12:14:16;15.97;;;12.57;;
4106;SDS011;21906;50.812;7.132;2023-02-15T12:21:52;17.53;;;12.50;;
4106;SDS011;21906;50.812;7.132;2023-02-15T12:26:55;21.60;;;13.70;;
4106;SDS011;21906;50.812;7.132;2023-02-15T12:29:42;14.07;;;12.03;;
4106;SDS011;21906;50.812;7.132;2023-02-15T12:32:15;17.67;;;12.80;;
4106;SDS011;21906;50.812;7.132;2023-02-15T12:34:47;16.17;;;12.60;;
4106;SDS011;21906;50.812;7.132;2023-02-15T12:37:21;17.80;;;12.23;;
4106;SDS011;21906;50.812;7.132;2023-02-15T12:39:55;17.80;;;12.80;;
4106;SDS011;21906;50.812;7.132;2023-02-15T12:42:23;15.20;;;12.50;;
4106;SDS011;21906;50.812;7.132;2023-02-15T12:45:04;20.23;;;13.07;;
4106;SDS011;21906;50.812;7.132;2023-02-15T12:50:45;16.90;;;13.00;;
4106;SDS011;21906;50.812;7.132;2023-02-15T12:53:31;16.00;;;12.37;;
4106;SDS011;21906;50.812;7.132;2023-02-15T12:55:59;15.73;;;12.50;;
4106;SDS011;21906;50.812;7.132;2023-02-15T12:58:27;17.10;;;12.47;;
4106;SDS011;21906;50.812;7.132;2023-02-15T13:01:19;14.30;;;12.17;;
4106;SDS011;21906;50.812;7.132;2023-02-15T13:04:06;17.07;;;12.23;;
4106;SDS011;21906;50.812;7.132;2023-02-15T13:06:59;15.73;;;12.70;;
4106;SDS011;21906;50.812;7.132;2023-02-15T13:11:56;15.53;;;12.20;;
4106;SDS011;21906;50.812;7.132;2023-02-15T13:14:34;14.77;;;12.13;;
4106;SDS011;21906;50.812;7.132;2023-02-15T13:17:02;15.60;;;12.20;;
4106;SDS011;21906;50.812;7.132;2023-02-15T13:19:36;15.77;;;12.40;;
4106;SDS011;21906;50.812;7.132;2023-02-15T13:22:12;15.37;;;12.93;;
4106;SDS011;21906;50.812;7.132;2023-02-15T13:24:52;14.67;;;11.17;;
4106;SDS011;21906;50.812;7.132;2023-02-15T13:27:24;15.97;;;11.90;;
4106;SDS011;21906;50.812;7.132;2023-02-15T13:29:58;16.60;;;13.37;;
4106;SDS011;21906;50.812;7.132;2023-02-15T13:35:03;17.67;;;12.97;;
4106;SDS011;21906;50.812;7.132;2023-02-15T13:40:24;16.40;;;12.67;;
4106;SDS011;21906;50.812;7.132;2023-02-15T13:53:24;17.23;;;12.77;;
4106;SDS011;21906;50.812;7.132;2023-02-15T13:56:19;13.33;;;11.30;;
4106;SDS011;21906;50.812;7.132;2023-02-15T14:20:07;16.50;;;12.50;;
4106;SDS011;21906;50.812;7.132;2023-02-15T14:31:59;14.97;;;12.73;;
4106;SDS011;21906;50.812;7.132;2023-02-15T14:37:19;19.00;;;15.17;;
4106;SDS011;21906;50.812;7.132;2023-02-15T14:46:35;17.00;;;14.27;;
4106;SDS011;21906;50.812;7.132;2023-02-15T14:48:47;17.07;;;13.93;;
4106;SDS011;21906;50.812;7.132;2023-02-15T14:54:11;18.30;;;13.63;;
4106;SDS011;21906;50.812;7.132;2023-02-15T15:04:56;17.77;;;13.30;;
4106;SDS011;21906;50.812;7.132;2023-02-15T15:07:41;17.00;;;14.00;;
4106;SDS011;21906;50.812;7.132;2023-02-15T15:12:50;18.90;;;15.03;;
4106;SDS011;21906;50.812;7.132;2023-02-15T15:20:37;16.07;;;13.63;;
4106;SDS011;21906;50.812;7.132;2023-02-15T15:28:06;18.77;;;13.53;;
4106;SDS011;21906;50.812;7.132;2023-02-15T15:50:40;18.77;;;13.17;;
4106;SDS011;21906;50.812;7.132;2023-02-15T15:53:10;19.10;;;14.37;;
4106;SDS011;21906;50.812;7.132;2023-02-15T15:55:46;19.50;;;14.63;;
4106;SDS011;21906;50.812;7.132;2023-02-15T15:58:13;20.17;;;14.43;;
4106;SDS011;21906;50.812;7.132;2023-02-15T16:05:45;16.70;;;13.70;;
4106;SDS011;21906;50.812;7.132;2023-02-15T16:08:13;19.07;;;14.67;;
4106;SDS011;21906;50.812;7.132;2023-02-15T16:10:50;20.30;;;14.73;;
4106;SDS011;21906;50.812;7.132;2023-02-15T16:13:15;21.00;;;14.73;;
4106;SDS011;21906;50.812;7.132;2023-02-15T16:18:15;19.43;;;14.43;;
4106;SDS011;21906;50.812;7.132;2023-02-15T16:20:42;18.03;;;13.80;;
4106;SDS011;21906;50.812;7.132;2023-02-15T16:26:00;23.03;;;14.97;;
4106;SDS011;21906;50.812;7.132;2023-02-15T16:28:28;16.70;;;13.30;;
4106;SDS011;21906;50.812;7.132;2023-02-15T16:30:58;20.80;;;14.90;;
4106;SDS011;21906;50.812;7.132;2023-02-15T16:33:36;18.90;;;13.53;;
4106;SDS011;21906;50.812;7.132;2023-02-15T16:36:04;20.60;;;14.30;;
4106;SDS011;21906;50.812;7.132;2023-02-15T16:41:08;20.13;;;14.33;;
4106;SDS011;21906;50.812;7.132;2023-02-15T16:43:36;20.50;;;15.07;;
4106;SDS011;21906;50.812;7.132;2023-02-15T16:46:04;19.00;;;13.77;;
4106;SDS011;21906;50.812;7.132;2023-02-15T16:48:48;17.53;;;12.80;;
4106;SDS011;21906;50.812;7.132;2023-02-15T16:51:24;22.83;;;14.40;;
4106;SDS011;21906;50.812;7.132;2023-02-15T16:53:52;22.30;;;15.20;;
4106;SDS011;21906;50.812;7.132;2023-02-15T16:56:26;16.87;;;13.10;;
4106;SDS011;21906;50.812;7.132;2023-02-15T16:58:55;20.73;;;14.87;;
4106;SDS011;21906;50.812;7.132;2023-02-15T17:01:23;19.07;;;13.90;;
4106;SDS011;21906;50.812;7.132;2023-02-15T17:04:10;20.13;;;13.83;;
4106;SDS011;21906;50.812;7.132;2023-02-15T17:06:36;19.23;;;14.17;;
4106;SDS011;21906;50.812;7.132;2023-02-15T17:09:13;22.20;;;14.63;;
4106;SDS011;21906;50.812;7.132;2023-02-15T17:11:43;20.60;;;13.47;;
4106;SDS011;21906;50.812;7.132;2023-02-15T17:16:52;22.63;;;15.03;;
4106;SDS011;21906;50.812;7.132;2023-02-15T17:19:22;21.20;;;14.60;;
4106;SDS011;21906;50.812;7.132;2023-02-15T17:21:58;23.30;;;14.87;;
4106;SDS011;21906;50.812;7.132;2023-02-15T17:27:19;23.70;;;15.30;;
4106;SDS011;21906;50.812;7.132;2023-02-15T17:30:04;21.83;;;14.70;;
4106;SDS011;21906;50.812;7.132;2023-02-15T17:32:51;19.53;;;14.40;;
4106;SDS011;21906;50.812;7.132;2023-02-15T17:35:20;20.47;;;14.00;;
4106;SDS011;21906;50.812;7.132;2023-02-15T17:37:49;19.97;;;14.03;;
4106;SDS011;21906;50.812;7.132;2023-02-15T17:40:25;17.23;;;12.20;;
4106;SDS011;21906;50.812;7.132;2023-02-15T17:42:56;22.40;;;14.40;;
4106;SDS011;21906;50.812;7.132;2023-02-15T17:45:22;20.67;;;14.23;;
4106;SDS011;21906;50.812;7.132;2023-02-15T17:47:51;19.10;;;13.20;;
4106;SDS011;21906;50.812;7.132;2023-02-15T17:50:21;20.97;;;14.40;;
4106;SDS011;21906;50.812;7.132;2023-02-15T17:52:49;21.87;;;14.47;;
4106;SDS011;21906;50.812;7.132;2023-02-15T17:55:17;20.97;;;14.50;;
4106;SDS011;21906;50.812;7.132;2023-02-15T17:58:00;20.33;;;14.60;;
4106;SDS011;21906;50.812;7.132;2023-02-15T18:00:28;25.97;;;15.30;;
4106;SDS011;21906;50.812;7.132;2023-02-15T18:03:14;22.27;;;14.80;;
4106;SDS011;21906;50.812;7.132;2023-02-15T18:05:58;25.90;;;15.27;;
4106;SDS011;21906;50.812;7.132;2023-02-15T18:08:42;20.77;;;14.23;;
4106;SDS011;21906;50.812;7.132;2023-02-15T18:11:26;19.63;;;14.47;;
4106;SDS011;21906;50.812;7.132;2023-02-15T18:14:02;24.43;;;15.10;;
4106;SDS011;21906;50.812;7.132;2023-02-15T18:16:30;21.37;;;13.97;;
4106;SDS011;21906;50.812;7.132;2023-02-15T18:19:08;25.17;;;15.43;;
4106;SDS011;21906;50.812;7.132;2023-02-15T18:21:41;21.77;;;14.80;;
4106;SDS011;21906;50.812;7.132;2023-02-15T18:24:14;23.00;;;14.90;;
4106;SDS011;21906;50.812;7.132;2023-02-15T18:26:42;20.07;;;13.83;;
4106;SDS011;21906;50.812;7.132;2023-02-15T18:29:08;21.30;;;14.33;;
4106;SDS011;21906;50.812;7.132;2023-02-15T18:31:34;22.90;;;14.20;;
4106;SDS011;21906;50.812;7.132;2023-02-15T18:33:59;22.87;;;15.53;;
4106;SDS011;21906;50.812;7.132;2023-02-15T18:39:24;25.70;;;15.50;;
4106;SDS011;21906;50.812;7.132;2023-02-15T18:41:57;20.00;;;15.10;;
4106;SDS011;21906;50.812;7.132;2023-02-15T18:44:24;22.70;;;15.30;;
4106;SDS011;21906;50.812;7.132;2023-02-15T18:46:50;23.93;;;15.07;;
4106;SDS011;21906;50.812;7.132;2023-02-15T18:49:15;24.00;;;15.40;;
4106;SDS011;21906;50.812;7.132;2023-02-15T18:51:41;21.67;;;14.70;;
4106;SDS011;21906;50.812;7.132;2023-02-15T18:54:12;21.67;;;14.47;;
4106;SDS011;21906;50.812;7.132;2023-02-15T18:56:41;22.57;;;14.93;;
4106;SDS011;21906;50.812;7.132;2023-02-15T18:59:12;24.63;;;16.07;;
4106;SDS011;21906;50.812;7.132;2023-02-15T19:01:40;24.17;;;15.90;;